Terminal Aerodrome Forecast
Issued by NWS Cleveland, OH

Home | Current Version | Previous Version | Graphics & Text | Print | Product List | Glossary On
Versions: 1 2 3 4 5 6 7 8 9 10 11 12 13 14 15 16 17 18 19 20 21 22 23 24 25 26 27 28 29 30 31 32
000
FTUS41 KCLE 272300
TAFCLE
TAF
KCLE 272320Z 2800/2906 35007KT P6SM SCT035 BKN250
     FM280200 03005KT P6SM BKN250
     FM281400 01006KT P6SM SCT250
     FM281800 35008KT P6SM SCT250
     FM290000 02004KT P6SM SKC=

USA.gov is the U.S. government's official web portal to all federal, state and local government web resources and services.